createdAt,value
2022-09-05T00:02:51.381Z,97990.13
2022-09-05T00:06:05.430Z,97986.66
2022-09-05T00:09:14.453Z,97981.09
2022-09-05T00:12:19.276Z,97984.00
2022-09-05T00:15:31.018Z,97979.28
2022-09-05T00:21:17.720Z,97978.47
2022-09-05T00:24:21.706Z,97968.47
2022-09-05T00:26:09.275Z,97973.38
2022-09-05T00:30:43.917Z,97972.97
2022-09-05T00:33:16.753Z,97973.75
2022-09-05T00:36:31.934Z,97977.84
2022-09-05T00:39:37.042Z,97979.91
2022-09-05T00:42:40.099Z,97988.06
2022-09-05T00:45:47.770Z,97995.06
2022-09-05T00:48:56.366Z,97986.88
2022-09-05T00:52:06.055Z,97991.16
2022-09-05T00:55:22.227Z,97996.03
2022-09-05T00:58:59.631Z,98003.38
2022-09-05T01:02:13.088Z,97987.63
2022-09-05T01:05:39.345Z,98000.31
2022-09-05T01:08:55.655Z,97996.03
2022-09-05T01:12:20.431Z,97998.91
2022-09-05T01:15:32.695Z,98000.69
2022-09-05T01:18:47.976Z,97989.66
2022-09-05T01:22:26.675Z,97998.19
2022-09-05T01:25:47.056Z,98010.44
2022-09-05T01:29:15.939Z,98007.50
2022-09-05T01:32:34.421Z,98007.56
2022-09-05T01:36:04.196Z,98012.44
2022-09-05T01:40:10.759Z,98008.34
2022-09-05T01:42:49.004Z,98007.47
2022-09-05T01:45:58.497Z,98015.28
2022-09-05T01:49:08.807Z,98015.09
2022-09-05T01:52:27.800Z,98015.88
2022-09-05T01:56:03.949Z,98018.72
2022-09-05T01:59:26.450Z,98019.97
2022-09-05T02:02:50.725Z,98016.88
2022-09-05T02:06:12.237Z,98018.22
2022-09-05T02:09:37.526Z,98020.13
2022-09-05T02:12:58.436Z,98017.63
2022-09-05T02:16:13.573Z,98026.00
2022-09-05T02:19:22.686Z,98025.44
2022-09-05T02:22:34.504Z,98018.44
2022-09-05T02:26:01.612Z,98028.66
2022-09-05T02:29:28.412Z,98026.84
2022-09-05T02:32:43.232Z,98027.47
2022-09-05T02:35:57.095Z,98022.59
2022-09-05T02:43:42.380Z,98020.56
2022-09-05T02:45:19.570Z,98028.72
2022-09-05T02:46:04.154Z,98033.22
2022-09-05T02:49:14.015Z,98019.06
2022-09-05T02:57:28.763Z,98020.31
2022-09-05T02:57:35.413Z,98019.53
2022-09-05T03:00:08.221Z,98018.66
2022-09-05T03:03:24.621Z,98012.53
2022-09-05T03:06:35.591Z,98021.31
2022-09-05T03:09:56.748Z,98025.16
2022-09-05T03:13:28.610Z,98017.38
2022-09-05T03:17:14.971Z,98020.22
2022-09-05T03:20:46.958Z,98011.81
2022-09-05T03:24:24.073Z,98018.09
2022-09-05T03:28:13.127Z,98027.06
2022-09-05T03:31:40.853Z,98020.88
2022-09-05T03:35:21.371Z,98028.31
2022-09-05T03:38:54.617Z,98036.84
2022-09-05T03:42:19.482Z,98039.16
2022-09-05T03:45:45.085Z,98049.63
2022-09-05T03:51:07.925Z,98057.47
2022-09-05T03:57:13.435Z,98085.56
2022-09-05T03:57:14.631Z,98064.41
2022-09-05T04:00:08.307Z,98097.25
2022-09-05T04:08:10.571Z,98112.19
2022-09-05T04:08:14.138Z,98112.81
2022-09-05T04:10:27.726Z,98105.59
2022-09-05T04:13:35.124Z,98105.59
2022-09-05T04:16:51.072Z,98111.91
2022-09-05T04:20:00.252Z,98104.19
2022-09-05T04:23:13.991Z,98100.41
2022-09-05T04:26:53.038Z,98095.47
2022-09-05T04:30:00.890Z,98104.06
2022-09-05T04:33:09.496Z,98105.19
2022-09-05T04:36:21.088Z,98122.84
2022-09-05T04:39:28.497Z,98122.22
2022-09-05T04:42:31.734Z,98145.59
2022-09-05T04:45:41.037Z,98141.53
2022-09-05T04:48:51.135Z,98149.78
2022-09-05T04:52:31.613Z,98156.47
2022-09-05T04:55:42.493Z,98160.44
2022-09-05T05:01:22.700Z,98170.50
2022-09-05T05:06:11.746Z,98172.41
2022-09-05T05:06:17.936Z,98168.28
2022-09-05T05:09:27.119Z,98173.25
2022-09-05T05:18:00.361Z,98174.91
2022-09-05T05:18:09.262Z,98178.63
2022-09-05T05:20:40.091Z,98180.34
2022-09-05T05:23:14.976Z,98184.53
2022-09-05T05:26:24.140Z,98187.06
2022-09-05T05:29:40.022Z,98194.88
2022-09-05T05:32:46.774Z,98193.13
2022-09-05T05:35:51.143Z,98185.78
2022-09-05T05:38:59.367Z,98197.66
2022-09-05T05:42:20.022Z,98196.25
2022-09-05T05:45:29.059Z,98195.47
2022-09-05T05:48:37.537Z,98194.09
2022-09-05T05:52:02.022Z,98191.91
2022-09-05T05:55:50.319Z,98179.47
2022-09-05T05:58:59.677Z,98176.06
2022-09-05T06:02:34.668Z,98182.25
2022-09-05T06:05:59.636Z,98169.44
2022-09-05T06:14:50.494Z,98171.28
2022-09-05T06:14:57.994Z,98159.91
2022-09-05T06:17:30.355Z,98149.38
2022-09-05T06:22:09.392Z,98136.72
2022-09-05T06:25:18.814Z,98130.22
2022-09-05T06:28:32.834Z,98122.03
2022-09-05T06:31:49.576Z,98111.44
2022-09-05T06:35:17.989Z,98102.63
2022-09-05T06:38:29.865Z,98097.53
2022-09-05T06:41:44.178Z,98094.88
2022-09-05T06:45:15.911Z,98095.88
2022-09-05T06:48:45.616Z,98087.47
2022-09-05T06:52:28.847Z,98072.94
2022-09-05T06:55:50.226Z,98074.97
2022-09-05T06:59:35.835Z,98071.66
2022-09-05T07:02:58.811Z,98054.44
2022-09-05T07:06:09.188Z,98057.63
2022-09-05T07:09:31.800Z,98044.69
2022-09-05T07:12:45.785Z,98047.72
2022-09-05T07:15:57.431Z,98037.78
2022-09-05T07:19:10.276Z,98041.00
2022-09-05T07:22:47.010Z,98044.00
2022-09-05T07:25:54.430Z,98046.13
2022-09-05T07:29:03.632Z,98037.56
2022-09-05T07:32:10.891Z,98047.91
2022-09-05T07:35:18.926Z,98045.16
2022-09-05T07:38:35.306Z,98045.59
2022-09-05T07:41:54.162Z,98037.31
2022-09-05T07:45:00.030Z,98049.50
2022-09-05T07:48:06.232Z,98044.31
2022-09-05T07:55:26.254Z,98049.50
2022-09-05T07:57:09.635Z,98048.81
2022-09-05T07:58:11.671Z,98051.00
2022-09-05T08:01:15.877Z,98046.81
2022-09-05T08:04:26.470Z,98046.97
2022-09-05T08:07:48.949Z,98045.56
2022-09-05T08:11:22.090Z,98043.38
2022-09-05T08:14:44.584Z,98057.44
2022-09-05T08:17:58.617Z,98066.25
2022-09-05T08:21:09.302Z,98073.00
2022-09-05T08:24:21.159Z,98063.81
2022-09-05T08:27:26.798Z,98067.66
2022-09-05T08:30:39.248Z,98070.00
2022-09-05T08:33:43.483Z,98063.25
2022-09-05T08:36:49.141Z,98065.94
2022-09-05T08:39:57.576Z,98064.44
2022-09-05T08:46:36.041Z,98064.78
2022-09-05T08:47:00.617Z,98064.44
2022-09-05T08:50:27.067Z,98067.41
2022-09-05T08:53:48.996Z,98067.41
2022-09-05T08:56:58.187Z,98061.81
2022-09-05T09:00:20.699Z,98060.44
2022-09-05T09:03:33.592Z,98068.72
2022-09-05T09:07:36.763Z,98068.38
2022-09-05T09:10:40.392Z,98074.09
2022-09-05T09:13:53.221Z,98055.53
2022-09-05T09:17:06.760Z,98054.91
2022-09-05T09:20:30.965Z,98056.63
2022-09-05T09:23:46.003Z,98060.03
2022-09-05T09:26:56.438Z,98054.72
2022-09-05T09:30:05.741Z,98050.84
2022-09-05T09:33:11.219Z,98057.75
2022-09-05T09:36:42.612Z,98049.16
2022-09-05T09:40:13.773Z,98051.50
2022-09-05T09:43:27.293Z,98052.00
2022-09-05T09:46:39.602Z,98053.66
2022-09-05T09:50:09.512Z,98056.50
2022-09-05T09:53:23.633Z,98051.09
2022-09-05T09:57:01.217Z,98040.91
2022-09-05T10:00:09.660Z,98046.09
2022-09-05T10:06:52.528Z,98044.59
2022-09-05T10:10:49.914Z,98041.91
2022-09-05T10:15:01.905Z,98037.84
2022-09-05T10:18:39.826Z,98024.59
2022-09-05T10:25:28.985Z,98029.84
2022-09-05T10:28:40.725Z,98025.88
2022-09-05T10:34:52.152Z,98029.19
2022-09-05T10:35:26.704Z,98019.84
2022-09-05T10:38:40.411Z,98008.09
2022-09-05T10:41:50.953Z,98016.44
2022-09-05T10:44:56.734Z,98011.25
2022-09-05T10:48:13.247Z,98011.34
2022-09-05T10:51:27.852Z,98003.47
2022-09-05T10:54:41.243Z,98009.84
2022-09-05T10:57:57.300Z,98014.19
2022-09-05T11:02:23.328Z,98007.47
2022-09-05T11:04:49.843Z,98001.72
2022-09-05T11:08:02.903Z,97996.53
2022-09-05T11:11:26.045Z,97992.88
2022-09-05T11:14:50.424Z,97994.09
2022-09-05T11:17:59.030Z,97989.47
2022-09-05T11:21:08.852Z,97991.63
2022-09-05T11:24:27.531Z,97985.13
2022-09-05T11:27:35.511Z,97976.44
2022-09-05T11:30:44.173Z,97978.66
2022-09-05T11:39:46.113Z,97974.63
2022-09-05T11:40:06.456Z,97981.25
2022-09-05T11:42:30.337Z,97974.25
2022-09-05T11:46:08.771Z,97982.75
2022-09-05T11:49:41.062Z,97979.06
2022-09-05T11:53:11.989Z,97971.06
2022-09-05T11:56:54.107Z,97975.25
2022-09-05T12:00:32.590Z,97970.63
2022-09-05T12:07:31.781Z,97969.16
2022-09-05T12:10:51.686Z,97969.69
2022-09-05T12:14:21.419Z,97973.81
2022-09-05T12:17:35.120Z,97967.78
2022-09-05T12:20:50.034Z,97966.88
2022-09-05T12:25:15.227Z,97966.81
2022-09-05T12:27:42.379Z,97955.50
2022-09-05T12:31:07.052Z,97945.88
2022-09-05T12:36:08.056Z,97953.13
2022-09-05T12:40:43.395Z,97950.66
2022-09-05T12:41:35.460Z,97975.44
2022-09-05T12:41:44.903Z,97952.28
2022-09-05T12:44:51.746Z,97950.66
2022-09-05T12:48:05.642Z,97944.16
2022-09-05T12:51:11.877Z,97946.91
2022-09-05T12:54:42.795Z,97937.66
2022-09-05T13:00:20.127Z,97933.09
2022-09-05T13:03:05.548Z,97939.47
2022-09-05T13:05:02.024Z,97932.25
2022-09-05T13:08:05.706Z,97935.22
2022-09-05T13:14:46.573Z,97938.47
2022-09-05T13:14:55.028Z,97939.44
2022-09-05T13:18:07.669Z,97931.13
2022-09-05T13:21:23.262Z,97937.88
2022-09-05T13:24:30.799Z,97929.56
2022-09-05T13:27:40.746Z,97932.25
2022-09-05T13:34:16.170Z,97929.88
2022-09-05T13:38:13.810Z,97928.78
2022-09-05T13:38:30.548Z,97928.81
2022-09-05T13:41:28.374Z,97921.00
2022-09-05T13:44:40.434Z,97922.31
2022-09-05T13:48:05.014Z,97916.94
2022-09-05T13:51:27.602Z,97913.22
2022-09-05T13:54:39.258Z,97905.09
2022-09-05T13:57:47.411Z,97908.84
2022-09-05T14:01:15.088Z,97902.63
2022-09-05T14:05:14.824Z,97896.38
2022-09-05T14:09:35.012Z,97896.69
2022-09-05T14:12:29.701Z,97896.47
2022-09-05T14:15:43.640Z,97894.84
2022-09-05T14:19:03.116Z,97896.47
2022-09-05T14:22:08.776Z,97887.75
2022-09-05T14:25:34.631Z,97882.00
2022-09-05T14:28:58.199Z,97882.53
2022-09-05T14:37:46.700Z,97875.03
2022-09-05T14:37:51.595Z,97876.97
2022-09-05T14:39:53.545Z,97878.59
2022-09-05T14:43:14.145Z,97874.22
2022-09-05T14:46:33.581Z,97870.72
2022-09-05T14:49:55.198Z,97865.00
2022-09-05T14:59:35.403Z,97855.59
2022-09-05T15:02:53.441Z,97856.06
2022-09-05T15:03:23.628Z,97853.31
2022-09-05T15:06:32.772Z,97852.75
2022-09-05T15:11:25.413Z,97855.44
2022-09-05T15:13:04.198Z,97852.22
2022-09-05T15:16:10.389Z,97852.22
2022-09-05T15:20:04.951Z,97857.28
2022-09-05T15:23:16.762Z,97856.50
2022-09-05T15:26:25.809Z,97851.78
2022-09-05T15:29:31.799Z,97848.50
2022-09-05T15:32:38.094Z,97850.38
2022-09-05T15:35:44.297Z,97852.81
2022-09-05T15:38:55.318Z,97849.91
2022-09-05T15:42:12.533Z,97848.84
2022-09-05T15:45:21.460Z,97850.66
2022-09-05T15:48:26.536Z,97853.91
2022-09-05T15:51:48.083Z,97844.09
2022-09-05T15:54:53.865Z,97847.75
2022-09-05T15:58:01.498Z,97830.50
2022-09-05T16:01:17.059Z,97835.78
2022-09-05T16:10:27.442Z,97831.41
2022-09-05T16:10:46.155Z,97823.28
2022-09-05T16:15:23.136Z,97831.22
2022-09-05T16:23:20.433Z,97832.34
2022-09-05T16:23:29.336Z,97815.09
2022-09-05T16:25:17.590Z,97821.84
2022-09-05T16:28:24.596Z,97816.53
2022-09-05T16:31:39.466Z,97820.06
2022-09-05T16:34:49.825Z,97826.72
2022-09-05T16:37:56.280Z,97824.78
2022-09-05T16:41:07.333Z,97822.06
2022-09-05T16:44:23.742Z,97827.91
2022-09-05T16:47:36.440Z,97815.81
2022-09-05T16:50:50.099Z,97813.59
2022-09-05T16:53:58.630Z,97808.44
2022-09-05T16:57:07.089Z,97804.56
2022-09-05T17:00:11.462Z,97805.03
2022-09-05T17:03:33.619Z,97803.53
2022-09-05T17:06:45.832Z,97799.81
2022-09-05T17:09:48.805Z,97801.81
2022-09-05T17:12:54.137Z,97796.56
2022-09-05T17:16:00.404Z,97789.09
2022-09-05T17:19:04.159Z,97792.47
2022-09-05T17:29:11.442Z,97789.66
2022-09-05T17:29:30.887Z,97778.16
2022-09-05T17:29:49.405Z,97792.97
2022-09-05T17:32:47.124Z,97777.50
2022-09-05T17:36:09.971Z,97774.19
2022-09-05T17:39:32.962Z,97770.53
2022-09-05T17:42:56.507Z,97773.13
2022-09-05T17:46:16.827Z,97776.31
2022-09-05T17:49:42.911Z,97779.31
2022-09-05T17:53:26.819Z,97774.97
2022-09-05T17:56:36.070Z,97779.72
2022-09-05T17:59:38.980Z,97778.16
2022-09-05T18:02:56.235Z,97774.75
2022-09-05T18:06:03.895Z,97779.47
2022-09-05T18:09:11.967Z,97778.78
2022-09-05T18:13:14.101Z,97772.66
2022-09-05T18:16:14.265Z,97773.22
2022-09-05T18:19:57.715Z,97783.75
2022-09-05T18:23:37.494Z,97775.28
2022-09-05T18:26:41.971Z,97777.41
2022-09-05T18:29:57.974Z,97785.53
2022-09-05T18:33:55.808Z,97789.72
2022-09-05T18:36:45.622Z,97780.19
2022-09-05T18:40:06.107Z,97789.63
2022-09-05T18:43:19.461Z,97783.91
2022-09-05T18:46:26.512Z,97787.16
2022-09-05T18:50:22.064Z,97781.25
2022-09-05T18:53:09.586Z,97772.50
2022-09-05T18:56:27.263Z,97781.03
2022-09-05T18:59:34.884Z,97774.16
2022-09-05T19:02:51.512Z,97772.75
2022-09-05T19:06:37.082Z,97780.69
2022-09-05T19:09:32.904Z,97780.00
2022-09-05T19:12:53.240Z,97773.03
2022-09-05T19:16:21.195Z,97776.63
2022-09-05T19:19:24.772Z,97783.38
2022-09-05T19:23:08.732Z,97790.25
2022-09-05T19:25:57.302Z,97779.06
2022-09-05T19:36:47.152Z,97782.22
2022-09-05T19:37:04.775Z,97776.78
2022-09-05T19:37:06.618Z,97787.94
2022-09-05T19:44:11.090Z,97781.91
2022-09-05T19:47:26.163Z,97782.34
2022-09-05T19:47:44.915Z,97777.47
2022-09-05T19:49:40.040Z,97774.22
2022-09-05T19:52:42.941Z,97772.34
2022-09-05T19:55:46.924Z,97773.25
2022-09-05T19:58:51.892Z,97774.22
2022-09-05T20:01:54.762Z,97775.22
2022-09-05T20:05:01.226Z,97773.78
2022-09-05T20:08:14.131Z,97775.19
2022-09-05T20:11:37.238Z,97767.41
2022-09-05T20:14:50.600Z,97761.00
2022-09-05T20:17:55.092Z,97769.81
2022-09-05T20:21:02.169Z,97762.13
2022-09-05T20:24:05.597Z,97758.06
2022-09-05T20:27:10.107Z,97760.53
2022-09-05T20:30:27.190Z,97764.38
2022-09-05T20:33:35.177Z,97771.38
2022-09-05T20:43:11.840Z,97780.56
2022-09-05T20:43:22.838Z,97784.75
2022-09-05T20:43:53.732Z,97792.56
2022-09-05T20:51:36.546Z,97791.28
2022-09-05T20:54:12.985Z,97785.91
2022-09-05T20:54:18.046Z,97792.31
2022-09-05T20:57:22.897Z,97789.22
2022-09-05T21:00:29.129Z,97797.28
2022-09-05T21:03:40.729Z,97789.53
2022-09-05T21:06:44.634Z,97795.06
2022-09-05T21:09:52.901Z,97787.91
2022-09-05T21:12:58.109Z,97777.31
2022-09-05T21:16:01.697Z,97780.69
2022-09-05T21:19:06.168Z,97778.84
2022-09-05T21:22:21.215Z,97780.34
2022-09-05T21:25:28.271Z,97776.84
2022-09-05T21:29:04.555Z,97767.56
2022-09-05T21:32:11.840Z,97767.09
2022-09-05T21:35:34.591Z,97761.97
2022-09-05T21:38:41.665Z,97763.84
2022-09-05T21:41:48.889Z,97755.69
2022-09-05T21:47:49.090Z,97750.81
2022-09-05T21:48:20.651Z,97759.28
2022-09-05T21:51:27.503Z,97754.31
2022-09-05T21:59:13.827Z,97751.03
2022-09-05T21:59:24.925Z,97753.94
2022-09-05T22:01:19.866Z,97750.81
2022-09-05T22:04:42.696Z,97759.50
2022-09-05T22:07:48.571Z,97749.97
2022-09-05T22:10:52.871Z,97741.16
2022-09-05T22:13:57.036Z,97751.63
2022-09-05T22:17:01.428Z,97743.69
2022-09-05T22:20:07.076Z,97740.44
2022-09-05T22:23:11.925Z,97748.03
2022-09-05T22:26:16.703Z,97738.97
2022-09-05T22:29:19.488Z,97744.31
2022-09-05T22:32:34.610Z,97730.78
2022-09-05T22:35:40.252Z,97729.53
2022-09-05T22:38:44.385Z,97732.00
2022-09-05T22:41:47.146Z,97728.69
2022-09-05T22:44:49.908Z,97727.91
2022-09-05T22:47:52.946Z,97733.72
2022-09-05T22:50:55.807Z,97726.13
2022-09-05T22:53:59.958Z,97733.34
2022-09-05T22:57:03.154Z,97722.66
2022-09-05T23:00:07.311Z,97724.72
2022-09-05T23:03:10.333Z,97719.84
2022-09-05T23:06:13.463Z,97705.91
2022-09-05T23:09:17.731Z,97713.72
2022-09-05T23:12:20.487Z,97716.13
2022-09-05T23:15:23.550Z,97710.78
2022-09-05T23:18:26.560Z,97717.28
2022-09-05T23:21:29.556Z,97721.44
2022-09-05T23:24:33.690Z,97712.88
2022-09-05T23:27:37.247Z,97710.94
2022-09-05T23:30:40.712Z,97717.91
2022-09-05T23:33:43.549Z,97714.66
2022-09-05T23:36:46.607Z,97709.31
2022-09-05T23:39:50.754Z,97707.41
2022-09-05T23:42:55.627Z,97709.84
2022-09-05T23:45:58.598Z,97713.19
2022-09-05T23:49:01.397Z,97705.34
2022-09-05T23:52:04.530Z,97703.72
2022-09-05T23:55:09.827Z,97705.22
2022-09-05T23:58:13.398Z,97710.41
